METAR Reports From Nearby Airports

 

KLUD - Decatur, Texas, USA
Distance from Wildwood: ESE 5mi, 8km
Updated: May 26, 2020 12:55pm
Overcast
Overcast
 Wind from WNW
Wind: WNW 6 mph , 9 km/h
Temperature: 66°F , 19°C
Dew Point: 57°F , 14°C
Humidity: 73%
Barometer: 29.95 inHg , 1014.2 hPa
Clouds: Overcast
Visibility: 10 miles , 16 km
Cloud details: Partly Cloudy 2100 ft
Overcast 3000 ft
2020/05/26 17:55 KLUD 261755Z AUTO 30005KT 10SM SCT021 OVC030 19/14 A2995 RMK AO2 T01850136 10185 20153
KXBP - Bridgeport, Texas, USA
Distance from Wildwood: WSW 11mi, 18km
Updated: May 26, 2020 12:55pm
Overcast
Overcast
 Wind from NW
Wind: NW 3 mph , 6 km/h
Temperature: 66°F , 19°C
Dew Point: 55°F , 13°C
Humidity: 68%
Barometer: 29.97 inHg , 1014.9 hPa
Clouds: Overcast
Visibility: 10 miles , 16 km
Cloud details: Overcast 3000 ft
2020/05/26 17:55 KXBP 261755Z AUTO 31003KT 10SM OVC030 19/13 A2997 RMK AO2 T01910132 10193 20161
 
K0F2 - Bowie, Texas, USA
Distance from Wildwood: NNW 24mi, 39km
Updated: May 26, 2020 12:55pm
Overcast
Overcast
 Wind from W
Wind: W 3 mph , 6 km/h
Temperature: 68°F , 20°C
Dew Point: 59°F , 15°C
Humidity: 73%
Barometer: 29.95 inHg , 1014.2 hPa
Clouds: Overcast
Visibility: 10 miles , 16 km
Cloud details: Overcast 2200 ft
2020/05/26 17:55 K0F2 261755Z AUTO 28003KT 10SM OVC022 20/15 A2995 RMK AO2 60003 T01960154 10200 20165
KDTO - Denton, Texas, USA
Distance from Wildwood: E 27mi, 44km
Updated: May 26, 2020 12:53pm
Overcast
Overcast
 Wind from NW
Wind: NW 8 mph , 13 km/h
Temperature: 66°F , 19°C
Dew Point: 55°F , 13°C
Humidity: 68%
Barometer: 29.94 inHg , 1013.9 hPa
Clouds: Overcast
Visibility: 10 miles , 16 km
Cloud details: Overcast 3200 ft
2020/05/26 17:53 KDTO 261753Z 31007KT 10SM OVC032 19/13 A2994 RMK AO2 SLP133 60001 T01940133 10200 20161 50000
 
KAFW - Ft Worth/Allianc, Texas, USA
Distance from Wildwood: SE 29mi, 46km
Updated: May 26, 2020 12:53pm
Overcast
Overcast
 Wind from NW
Wind: NW 8 mph , 13 km/h
Temperature: 70°F , 21°C
Barometer: 29.95 inHg , 1014.2 hPa
Clouds: Overcast
Visibility: 10 miles , 16 km
Cloud details: Mostly Cloudy 2700 ft
Overcast 4100 ft
2020/05/26 17:53 KAFW 261753Z 31007KT 10SM BKN027 OVC041 21/ A2995 RMK AO2 SLP122 T0206 10211 20178 51003 $
KFTW - Fort Worth, Texas, USA
Distance from Wildwood: SSE 34mi, 55km
Updated: May 26, 2020 12:53pm
Overcast
Overcast
 Wind from WNW
Wind: WNW 7 mph , 11 km/h
Temperature: 68°F , 20°C
Dew Point: 57°F , 14°C
Humidity: 69%
Barometer: 29.93 inHg , 1013.5 hPa
Clouds: Overcast
Visibility: 10 miles , 16 km
Cloud details: Few Clouds 2700 ft
Overcast 3900 ft
2020/05/26 17:53 KFTW 261753Z 29006KT 10SM FEW027 OVC039 20/14 A2993 RMK AO2 SLP131 60000 T02000144 10206 20161 58003
 
KNFW - Fort Worth Nas, Texas, USA
Distance from Wildwood: SSE 36mi, 58km
Updated: May 26, 2020 12:52pm
Overcast
Overcast
 Wind from NW
Wind: NW 7 mph , 11 km/h
Temperature: 72°F , 22°C
Dew Point: 57°F , 14°C
Humidity: 61%
Barometer: 29.94 inHg , 1013.9 hPa
Clouds: Overcast
Visibility: 10 miles , 16 km
Cloud details: Mostly Cloudy 3200 ft
Overcast 4000 ft
2020/05/26 17:52 KNFW 261752Z 32006KT 10SM BKN032 OVC040 22/14 A2994 RMK AO2 SLP123 T02170139 10222 20178 58002 VISNO N $
KGLE - Gainesville, Texas, USA
Distance from Wildwood: NE 38mi, 61km
Updated: May 26, 2020 12:55pm
Overcast
Overcast
 Wind from WNW
Wind: WNW 6 mph , 9 km/h
Temperature: 66°F , 19°C
Dew Point: 59°F , 15°C
Humidity: 78%
Barometer: 29.95 inHg , 1014.2 hPa
Clouds: Overcast
Visibility: 10 miles , 16 km
Cloud details: Partly Cloudy 2200 ft
Overcast 2900 ft
2020/05/26 17:55 KGLE 261755Z AUTO 30005KT 10SM SCT022 OVC029 19/15 A2995 RMK AO2 T01870146 10188 20155 PWINO
 
KMWL - Mineral Wells, Texas, USA
Distance from Wildwood: SW 41mi, 65km
Updated: May 26, 2020 12:53pm
Overcast
Overcast
 Wind from WNW
Wind: WNW 9 mph , 15 km/h
Temperature: 72°F , 22°C
Dew Point: 57°F , 14°C
Humidity: 61%
Barometer: 29.94 inHg , 1013.9 hPa
Clouds: Overcast
Visibility: 10 miles , 16 km
Cloud details: Overcast 3500 ft
2020/05/26 17:53 KMWL 261753Z AUTO 29008KT 10SM OVC035 22/14 A2994 RMK AO2 SLP127 T02170139 10217 20167 58005
KDFW - Dallas/Ft Worth, Texas, USA
Distance from Wildwood: ESE 45mi, 73km
Updated: May 26, 2020 12:53pm
Overcast
Overcast
 Wind from NW
Wind: NW 12 mph , 19 km/h
Temperature: 68°F , 20°C
Dew Point: 57°F , 14°C
Humidity: 69%
Barometer: 29.92 inHg , 1013.2 hPa
Clouds: Overcast
Visibility: 10 miles , 16 km
Cloud details: Mostly Cloudy 2900 ft
Overcast 3400 ft
2020/05/26 17:53 KDFW 261753Z 31010KT 10SM BKN029 OVC034 20/14 A2992 RMK AO2 SLP127 60001 T02000144 10206 20172 58002